Time;durP1;ratioP1;P1;durP2;ratioP2;P2;SDS_P1;SDS_P2;PMS_P1;PMS_P2;Temp;Humidity;BMP_temperature;BMP_pressure;BME280_temperature;BME280_humidity;BME280_pressure;Samples;Min_cycle;Max_cycle;Signal;HPM_P1;HPM_P2
2023/02/18 00:01:36;;;;;;;76.40;71.35;;;;;;;6.42;96.20;99118.25;1756222;81;25565;-47
2023/02/18 00:04:04;;;;;;;71.40;66.50;;;;;;;6.41;96.15;99135.48;1787284;80;25372;-47
2023/02/18 00:06:36;;;;;;;71.85;66.90;;;;;;;6.35;94.51;99130.25;1756082;81;27543;-47
2023/02/18 00:09:07;;;;;;;38.35;35.65;;;;;;;6.35;94.83;99150.92;1787207;80;25400;-52
2023/02/18 00:11:36;;;;;;;63.50;58.98;;;;;;;6.34;94.13;99148.80;1756133;81;25546;-46
2023/02/18 00:14:08;;;;;;;15.48;13.80;;;;;;;6.33;93.99;99170.06;1787424;80;25574;-46
2023/02/18 00:16:35;;;;;;;78.05;72.72;;;;;;;6.31;94.50;99169.55;1756272;81;25449;-49
2023/02/18 00:19:05;;;;;;;78.70;73.25;;;;;;;6.29;94.91;99173.66;1787423;80;29776;-48
2023/02/18 00:21:36;;;;;;;79.47;73.95;;;;;;;6.29;93.87;99170.97;1756246;81;25640;-46
2023/02/18 00:24:07;;;;;;;80.28;74.70;;;;;;;6.28;94.52;99182.27;1787585;80;25597;-45
2023/02/18 00:26:35;;;;;;;80.22;74.80;;;;;;;6.28;94.58;99183.61;1756289;81;25481;-47
2023/02/18 00:29:03;;;;;;;56.63;52.83;;;;;;;6.31;93.43;99192.37;1787727;80;25486;-48
2023/02/18 00:31:34;;;;;;;78.70;73.25;;;;;;;6.32;94.01;99186.47;1756304;81;27535;-46
2023/02/18 00:34:05;;;;;;;77.62;72.15;;;;;;;6.35;93.88;99195.23;1787365;80;25590;-45
2023/02/18 00:36:34;;;;;;;78.30;72.32;;;;;;;6.36;93.04;99186.88;1756367;81;25621;-47
2023/02/18 00:39:06;;;;;;;77.60;72.20;;;;;;;6.38;92.67;99193.84;1787387;80;27608;-45
2023/02/18 00:41:37;;;;;;;79.15;73.67;;;;;;;6.38;90.72;99185.23;1726642;81;25499;-45
2023/02/18 00:44:05;;;;;;;78.90;73.25;;;;;;;6.40;91.52;99190.30;1787447;80;27517;-46
2023/02/18 00:46:34;;;;;;;77.27;71.60;;;;;;;6.39;91.51;99196.78;1756221;81;25557;-46
2023/02/18 00:49:04;;;;;;;77.75;72.55;;;;;;;6.36;88.71;99192.81;1787388;80;25442;-45
2023/02/18 00:51:33;;;;;;;78.92;73.75;;;;;;;6.38;89.47;99205.93;1756273;81;26037;-45
2023/02/18 00:54:01;;;;;;;78.60;73.17;;;;;;;6.34;88.57;99191.77;1787476;80;25403;-45
2023/02/18 00:56:28;;;;;;;78.28;73.05;;;;;;;6.35;90.10;99189.34;1756252;81;27589;-45
2023/02/18 00:58:54;;;;;;;78.40;73.10;;;;;;;6.34;89.75;99190.42;1787302;80;25631;-45
2023/02/18 01:01:20;;;;;;;80.07;74.17;;;;;;;6.31;89.41;99200.44;1756227;81;25429;-45
2023/02/18 01:03:49;;;;;;;80.87;75.30;;;;;;;6.29;87.38;99200.52;1756608;80;25596;-47
2023/02/18 01:06:23;;;;;;;80.75;74.72;;;;;;;6.27;87.80;99188.73;1756261;81;25477;-45
2023/02/18 01:08:49;;;;;;;77.40;72.05;;;;;;;6.26;87.42;99201.91;1787405;80;28479;-46
2023/02/18 01:11:17;;;;;;;79.58;74.22;;;;;;;6.23;86.75;99205.75;1759214;81;25394;-45
2023/02/18 01:13:43;;;;;;;76.42;70.70;;;;;;;6.20;84.83;99189.72;1793257;80;25653;-46
2023/02/18 01:16:11;;;;;;;7.37;2.35;;;;;;;6.17;85.00;99214.49;1761921;81;26392;-45
2023/02/18 01:18:39;;;;;;;10.58;3.47;;;;;;;6.16;83.44;99192.23;1793265;80;25570;-45
2023/02/18 01:21:09;;;;;;;17.30;15.68;;;;;;;6.18;84.51;99205.34;1761904;81;27513;-45
2023/02/18 01:23:37;;;;;;;;;;;;;;;6.16;84.21;99193.57;1795904;80;25539;-46
2023/02/18 01:26:08;;;;;;;8.65;3.35;;;;;;;6.16;82.63;99206.18;1793310;80;25570;-46
2023/02/18 01:28:37;;;;;;;6.97;1.98;;;;;;;6.17;81.92;99223.89;1761919;81;25598;-47
2023/02/18 01:31:09;;;;;;;4.22;1.95;;;;;;;6.15;83.03;99204.05;1793380;80;25565;-46
2023/02/18 01:33:36;;;;;;;18.98;17.67;;;;;;;6.13;83.21;99210.81;1761664;81;27540;-46
2023/02/18 01:36:06;;;;;;;21.75;20.02;;;;;;;6.09;83.26;99205.83;1793112;80;25682;-47
2023/02/18 01:38:34;;;;;;;5.95;1.42;;;;;;;6.03;81.94;99225.30;1762053;81;25599;-48
2023/02/18 01:41:02;;;;;;;7.35;2.52;;;;;;;6.03;81.94;99225.30;1793193;80;25439;-48
2023/02/18 01:43:32;;;;;;;7.55;6.47;;;;;;;6.03;78.70;99204.34;1761987;81;25472;-47
2023/02/18 01:46:18;;;;;;;12.50;11.12;;;;;;;6.03;80.81;99205.16;1793285;80;27202;-48
2023/02/18 01:48:57;;;;;;;8.60;2.00;;;;;;;6.04;80.08;99206.73;1761822;81;25726;-48
2023/02/18 01:51:36;;;;;;;8.10;2.20;;;;;;;6.04;79.80;99200.02;1793417;80;25439;-48
2023/02/18 01:54:27;;;;;;;4.03;3.12;;;;;;;6.04;80.51;99190.63;1761968;81;27650;-51
2023/02/18 01:57:04;;;;;;;64.62;60.08;;;;;;;6.03;80.72;99207.03;1793242;80;25529;-50
2023/02/18 01:59:36;;;;;;;35.00;32.50;;;;;;;6.01;81.15;99197.16;1761865;81;27592;-49
2023/02/18 02:02:08;;;;;;;78.80;72.40;;;;;;;5.98;81.51;99191.86;1760307;81;25506;-50
2023/02/18 02:04:36;;;;;;;77.27;72.05;;;;;;;5.97;79.59;99199.66;1761915;81;25659;-49
2023/02/18 02:07:05;;;;;;;79.47;73.87;;;;;;;5.98;81.22;99199.91;1761827;81;25597;-50
2023/02/18 02:09:35;;;;;;;78.17;72.80;;;;;;;5.97;78.28;99195.08;1761861;81;25589;-49
2023/02/18 02:12:42;;;;;;;76.95;71.35;;;;;;;5.97;80.70;99195.63;1761619;81;28277;-48
2023/02/18 02:15:41;;;;;;;77.67;71.92;;;;;;;5.96;80.33;99195.41;1761229;81;25627;-45
2023/02/18 02:18:12;;;;;;;77.20;71.82;;;;;;;5.96;78.26;99173.93;1761800;81;25366;-45
2023/02/18 02:21:22;;;;;;;59.93;55.45;;;;;;;5.95;79.22;99177.11;1761815;81;25527;-46
2023/02/18 02:24:08;;;;;;;;;;;;;;;5.95;78.77;99173.09;1764459;81;25445;-46
2023/02/18 02:27:00;;;;;;;77.75;72.45;;;;;;;5.96;80.16;99188.13;1793193;80;27525;-47
2023/02/18 02:30:13;;;;;;;77.27;71.90;;;;;;;5.94;80.29;99175.55;1760458;81;25465;-47
2023/02/18 02:32:56;;;;;;;77.80;72.55;;;;;;;5.92;77.80;99181.75;1761893;81;25593;-46
2023/02/18 02:35:28;;;;;;;76.90;71.72;;;;;;;5.94;79.79;99178.76;1761822;81;25513;-49
2023/02/18 02:38:15;;;;;;;79.05;73.30;;;;;;;5.92;79.62;99170.22;1762594;80;25578;-49
2023/02/18 02:41:14;;;;;;;77.90;72.45;;;;;;;5.90;79.21;99192.55;1761283;81;29740;-45
2023/02/18 02:44:08;;;;;;;80.00;74.27;;;;;;;5.87;79.26;99181.08;1792670;80;25500;-46
2023/02/18 02:46:41;;;;;;;78.33;73.02;;;;;;;5.85;78.73;99186.75;1761900;81;25626;-49
2023/02/18 02:49:47;;;;;;;77.80;72.32;;;;;;;5.83;79.38;99197.55;1793170;80;25473;-47
2023/02/18 02:52:25;;;;;;;78.62;73.20;;;;;;;5.79;79.14;99202.19;1749657;81;25513;-48
2023/02/18 02:54:53;;;;;;;80.40;74.67;;;;;;;5.78;77.75;99184.48;1720021;83;27609;-47
2023/02/18 02:57:27;;;;;;;77.42;72.05;;;;;;;5.78;78.47;99201.14;1719876;83;25447;-47
2023/02/18 02:59:58;;;;;;;76.47;71.02;;;;;;;5.77;78.87;99199.55;1720078;83;25625;-46
2023/02/18 03:02:30;;;;;;;77.85;72.32;;;;;;;5.76;78.65;99197.42;1720006;83;27714;-46
2023/02/18 03:05:20;;;;;;;77.03;71.92;;;;;;;5.75;77.10;99195.03;1719878;83;25495;-46
2023/02/18 03:08:01;;;;;;;;;;;;;;;5.73;77.89;99210.09;1722522;83;27515;-46
2023/02/18 03:10:48;;;;;;;76.95;71.57;;;;;;;5.75;76.34;99207.11;1730847;82;25524;-48
2023/02/18 03:13:55;;;;;;;79.27;73.45;;;;;;;5.73;77.29;99214.67;1719950;83;25601;-46
2023/02/18 03:16:52;;;;;;;77.65;72.55;;;;;;;5.70;76.67;99197.28;1730269;82;27733;-49
2023/02/18 03:19:36;;;;;;;78.25;72.95;;;;;;;5.70;77.72;99223.32;1719642;83;25639;-48
2023/02/18 03:22:23;;;;;;;78.45;72.37;;;;;;;5.67;77.29;99218.03;1719984;83;27878;-47
2023/02/18 03:24:56;;;;;;;5.10;1.55;;;;;;;5.65;77.95;99227.45;1760163;81;27416;-49
2023/02/18 03:27:39;;;;;;;5.22;1.70;;;;;;;5.63;78.36;99226.98;1754337;81;25550;-47
2023/02/18 03:30:29;;;;;;;11.48;2.42;;;;;;;5.61;78.05;99227.27;1757709;81;25532;-46
2023/02/18 03:32:59;;;;;;;5.65;1.47;;;;;;;5.58;77.40;99251.48;1753643;81;25545;-46
2023/02/18 03:35:28;;;;;;;9.18;1.80;;;;;;;5.57;77.31;99245.86;1757846;81;27481;-47
2023/02/18 03:38:20;;;;;;;8.63;1.90;;;;;;;5.56;77.76;99226.05;1754225;81;25578;-46
2023/02/18 03:40:50;;;;;;;11.78;2.10;;;;;;;5.54;77.16;99242.44;1757799;81;25536;-46
2023/02/18 03:43:18;;;;;;;11.00;1.90;;;;;;;5.51;75.87;99241.69;1754292;81;25679;-46
2023/02/18 03:45:46;;;;;;;5.70;1.40;;;;;;;5.50;76.16;99243.33;1757819;81;25640;-46
2023/02/18 03:48:17;;;;;;;8.75;3.15;;;;;;;5.49;77.34;99233.16;1754285;81;27271;-47
2023/02/18 03:50:43;;;;;;;9.50;1.82;;;;;;;5.48;76.38;99243.62;1757849;81;25408;-47
2023/02/18 03:53:10;;;;;;;4.22;1.52;;;;;;;5.47;77.45;99248.77;1754456;81;25615;-47
2023/02/18 03:55:36;;;;;;;9.00;1.85;;;;;;;5.45;77.91;99242.91;1757830;81;25549;-46
2023/02/18 03:58:02;;;;;;;18.17;2.47;;;;;;;5.43;76.42;99245.89;1754314;81;25468;-46
2023/02/18 04:00:31;;;;;;;11.68;1.95;;;;;;;5.41;76.29;99248.08;1757975;81;27503;-47
2023/02/18 04:02:59;;;;;;;6.58;1.70;;;;;;;5.43;76.71;99237.03;1754603;81;25626;-46
2023/02/18 04:05:27;;;;;;;5.03;1.92;;;;;;;5.41;76.33;99252.10;1757908;81;25433;-46
2023/02/18 04:07:55;;;;;;;9.80;2.25;;;;;;;5.41;75.93;99221.79;1754420;81;25630;-46
2023/02/18 04:10:23;;;;;;;11.33;1.45;;;;;;;5.40;75.48;99238.44;1757915;81;25391;-46
2023/02/18 04:12:50;;;;;;;8.35;2.50;;;;;;;5.38;75.94;99242.50;1754344;81;27496;-49
2023/02/18 04:15:18;;;;;;;5.35;2.10;;;;;;;5.36;76.07;99266.95;1785369;80;25564;-47
2023/02/18 04:17:44;;;;;;;10.80;3.22;;;;;;;5.35;75.78;99257.87;1754408;81;25649;-47
2023/02/18 04:20:13;;;;;;;8.48;1.70;;;;;;;5.33;75.07;99260.84;1754322;81;25550;-47
2023/02/18 04:22:39;;;;;;;4.12;1.80;;;;;;;5.30;75.50;99243.22;1754416;81;25624;-47
2023/02/18 04:25:07;;;;;;;8.00;1.47;;;;;;;5.28;76.35;99272.20;1754343;81;27533;-47
2023/02/18 04:27:35;;;;;;;5.60;1.90;;;;;;;5.26;75.66;99268.50;1754568;81;25565;-47
2023/02/18 04:30:05;;;;;;;12.58;3.20;;;;;;;5.24;76.21;99263.44;1754336;81;25558;-47
2023/02/18 04:32:33;;;;;;;8.78;1.92;;;;;;;5.22;74.67;99260.23;1754397;81;25603;-46
2023/02/18 04:34:59;;;;;;;10.30;1.80;;;;;;;5.22;75.85;99279.00;1754337;81;25452;-46
2023/02/18 04:37:27;;;;;;;8.18;1.95;;;;;;;5.21;76.20;99257.32;1754481;81;27619;-45
2023/02/18 04:39:55;;;;;;;13.38;3.33;;;;;;;5.19;75.37;99279.62;1754296;81;25463;-47
2023/02/18 04:42:24;;;;;;;10.18;2.17;;;;;;;5.18;74.63;99288.74;1729091;81;25572;-46
2023/02/18 04:44:52;;;;;;;19.42;3.00;;;;;;;5.18;76.06;99274.55;1754347;81;25517;-46
2023/02/18 04:47:20;;;;;;;8.65;1.80;;;;;;;5.15;75.69;99273.25;1754394;81;25467;-46
2023/02/18 04:49:46;;;;;;;11.50;2.65;;;;;;;5.13;75.77;99267.39;1754320;81;27572;-46
2023/02/18 04:52:14;;;;;;;10.15;1.82;;;;;;;5.11;75.33;99281.65;1728844;81;25395;-48
2023/02/18 04:54:43;;;;;;;6.12;1.85;;;;;;;5.11;75.08;99280.83;1754394;81;25420;-49
2023/02/18 04:57:11;;;;;;;9.75;2.08;;;;;;;5.09;75.68;99279.81;1754522;81;33128;-47
2023/02/18 04:59:39;;;;;;;10.85;1.62;;;;;;;5.09;76.16;99289.72;1754388;81;25644;-46
2023/02/18 05:02:09;;;;;;;11.55;2.55;;;;;;;5.07;76.19;99298.05;1754379;81;27490;-46
2023/02/18 05:04:36;;;;;;;9.98;2.22;;;;;;;5.07;76.49;99313.35;1754339;81;25561;-46
2023/02/18 05:07:02;;;;;;;10.08;1.98;;;;;;;5.05;76.47;99294.33;1754320;81;25587;-46
2023/02/18 05:09:29;;;;;;;10.88;2.42;;;;;;;5.05;76.04;99297.56;1754302;81;27762;-46
2023/02/18 05:11:55;;;;;;;15.98;3.33;;;;;;;5.04;75.90;99294.66;1754273;81;32486;-46
2023/02/18 05:14:22;;;;;;;8.60;1.60;;;;;;;5.01;75.99;99301.38;1754353;81;27573;-49
2023/02/18 05:16:48;;;;;;;9.40;2.45;;;;;;;5.02;75.64;99298.15;1754300;81;25542;-47
2023/02/18 05:19:16;;;;;;;7.58;2.45;;;;;;;5.01;75.36;99289.88;1754447;81;25545;-47
2023/02/18 05:21:44;;;;;;;6.72;6.12;;;;;;;5.00;75.99;99294.98;1754276;81;25600;-46
2023/02/18 05:24:12;;;;;;;10.15;5.20;;;;;;;5.00;75.62;99329.81;1754339;81;25531;-45
2023/02/18 05:26:39;;;;;;;6.90;1.95;;;;;;;4.99;76.08;99300.10;1754349;81;27545;-46
2023/02/18 05:29:06;;;;;;;13.13;2.87;;;;;;;4.98;76.43;99321.28;1754292;81;27443;-47
2023/02/18 05:31:33;;;;;;;7.85;1.80;;;;;;;4.97;75.68;99323.70;1754341;81;25434;-47
2023/02/18 05:34:00;;;;;;;10.48;1.95;;;;;;;4.96;75.34;99323.47;1754319;81;25517;-46
2023/02/18 05:36:27;;;;;;;10.90;2.33;;;;;;;4.96;76.11;99321.58;1754395;81;25415;-46
2023/02/18 05:38:54;;;;;;;7.50;5.00;;;;;;;4.95;75.40;99313.83;1754279;81;29802;-45
2023/02/18 05:41:22;;;;;;;41.68;38.25;;;;;;;4.94;75.94;99326.97;1754272;81;25434;-46
2023/02/18 05:46:35;;;;;;;23.55;20.97;;;;;;;4.92;75.70;99332.64;1757808;81;25518;-46
2023/02/18 05:49:04;;;;;;;17.37;14.87;;;;;;;4.91;74.93;99301.56;1754329;81;25562;-46
2023/02/18 05:51:31;;;;;;;15.13;13.62;;;;;;;4.90;74.66;99321.95;1758154;81;26944;-46
2023/02/18 05:53:59;;;;;;;39.90;36.77;;;;;;;4.90;75.71;99330.78;1754273;81;25566;-46
2023/02/18 05:56:25;;;;;;;52.15;47.83;;;;;;;4.89;75.58;99331.89;1757889;81;25630;-46
2023/02/18 05:58:53;;;;;;;73.05;67.90;;;;;;;4.89;76.25;99330.55;1754430;81;25613;-46
2023/02/18 06:01:21;;;;;;;58.58;54.08;;;;;;;4.88;76.21;99317.44;1757798;81;25628;-49
2023/02/18 06:03:49;;;;;;;9.73;5.53;;;;;;;4.87;75.99;99332.73;1754573;81;27589;-46
2023/02/18 06:06:15;;;;;;;8.55;7.00;;;;;;;4.85;76.07;99350.44;1757694;81;25540;-46
2023/02/18 06:08:43;;;;;;;10.85;3.17;;;;;;;4.85;75.78;99313.45;1754313;81;25606;-46
2023/02/18 06:11:09;;;;;;;5.60;1.57;;;;;;;4.84;75.25;99326.62;1757720;81;25638;-47
2023/02/18 06:13:37;;;;;;;11.78;3.52;;;;;;;4.85;75.58;99324.17;1751934;81;25383;-46
2023/02/18 06:16:06;;;;;;;8.85;3.42;;;;;;;4.85;75.39;99338.91;1754848;81;27492;-47
2023/02/18 06:18:32;;;;;;;8.33;7.58;;;;;;;4.86;75.52;99359.27;1751430;81;25840;-48
2023/02/18 06:20:59;;;;;;;10.93;9.63;;;;;;;4.86;74.94;99331.92;1754782;81;25399;-46
2023/02/18 06:23:27;;;;;;;35.35;33.15;;;;;;;4.86;75.23;99339.17;1751329;81;25762;-46
2023/02/18 06:25:55;;;;;;;56.65;52.78;;;;;;;4.88;75.05;99346.37;1754818;81;25456;-47
2023/02/18 06:28:21;;;;;;;50.40;46.50;;;;;;;4.89;75.71;99355.19;1751355;81;28049;-47
2023/02/18 06:30:49;;;;;;;71.85;66.12;;;;;;;4.89;74.99;99353.85;1754723;81;33210;-49
2023/02/18 06:33:17;;;;;;;23.95;22.05;;;;;;;4.91;74.26;99369.91;1751443;81;25604;-50
2023/02/18 06:35:59;;;;;;;26.42;24.18;;;;;;;4.92;74.03;99362.65;1754819;81;25517;-49
2023/02/18 06:38:27;;;;;;;25.55;23.60;;;;;;;4.96;74.92;99375.17;1751537;81;25471;-49
2023/02/18 06:40:55;;;;;;;68.33;63.28;;;;;;;4.96;74.09;99368.48;1754843;81;27550;-46
2023/02/18 06:43:23;;;;;;;77.25;71.65;;;;;;;4.98;74.52;99376.22;1751247;81;25582;-47
2023/02/18 06:45:51;;;;;;;76.30;70.85;;;;;;;4.99;74.35;99392.56;1754756;81;25663;-47
2023/02/18 06:48:19;;;;;;;77.72;72.03;;;;;;;4.99;73.96;99393.36;1751316;81;25515;-46
2023/02/18 06:50:48;;;;;;;73.17;67.30;;;;;;;5.01;74.38;99391.17;1754807;81;25571;-46
2023/02/18 06:53:17;;;;;;;76.87;71.37;;;;;;;5.01;74.33;99377.77;1751481;81;27495;-46
2023/02/18 06:55:45;;;;;;;71.82;66.72;;;;;;;5.01;74.09;99367.61;1754681;81;25862;-47
2023/02/18 06:58:13;;;;;;;66.92;62.33;;;;;;;5.01;74.41;99376.98;1751349;81;25566;-46
2023/02/18 07:00:41;;;;;;;69.65;64.62;;;;;;;5.02;74.06;99382.05;1754803;81;25526;-47
2023/02/18 07:03:13;;;;;;;80.00;73.92;;;;;;;5.02;73.70;99385.26;1751371;81;25634;-46
2023/02/18 07:05:42;;;;;;;78.85;73.07;;;;;;;5.03;73.62;99370.23;1754811;81;27187;-48
2023/02/18 07:08:12;;;;;;;76.80;71.25;;;;;;;5.04;73.78;99375.84;1751231;81;25557;-49
2023/02/18 07:10:38;;;;;;;79.65;74.00;;;;;;;5.07;73.88;99379.02;1754961;81;25639;-48
2023/02/18 07:13:06;;;;;;;78.52;72.62;;;;;;;5.08;74.34;99382.75;1751176;81;26281;-47
2023/02/18 07:15:34;;;;;;;78.05;72.42;;;;;;;5.08;74.40;99382.75;1754832;81;25574;-45
2023/02/18 07:18:03;;;;;;;77.70;72.40;;;;;;;5.12;74.35;99390.44;1751284;81;27483;-47
2023/02/18 07:20:29;;;;;;;78.10;72.22;;;;;;;5.15;74.08;99377.80;1754864;81;25604;-45
2023/02/18 07:22:58;;;;;;;79.20;73.62;;;;;;;5.19;73.48;99363.25;1751341;81;25601;-48
2023/02/18 07:25:26;;;;;;;80.12;74.27;;;;;;;5.24;73.04;99402.05;1754950;81;25650;-46
2023/02/18 07:27:52;;;;;;;83.13;76.37;;;;;;;5.28;73.73;99395.54;1751780;81;25561;-46
2023/02/18 07:30:20;;;;;;;78.20;72.30;;;;;;;5.34;73.98;99409.91;1754908;81;27647;-48
2023/02/18 07:32:48;;;;;;;80.00;74.50;;;;;;;5.38;72.74;99396.17;1751380;81;25549;-47
2023/02/18 07:35:17;;;;;;;79.35;73.40;;;;;;;5.41;73.43;99408.19;1754943;81;25517;-47
2023/02/18 07:37:47;;;;;;;77.58;71.90;;;;;;;5.41;73.13;99409.00;1751683;81;25637;-47
2023/02/18 07:40:19;;;;;;;17.15;2.62;;;;;;;5.42;73.35;99403.86;1755018;81;25566;-47
2023/02/18 07:42:48;;;;;;;8.58;3.47;;;;;;;5.46;73.21;99400.05;1751547;81;27514;-47
2023/02/18 07:45:17;;;;;;;13.18;2.60;;;;;;;5.47;72.05;99392.81;1754879;81;25773;-45
2023/02/18 07:47:45;;;;;;;9.98;3.25;;;;;;;5.47;73.28;99402.98;1751705;81;25614;-47
2023/02/18 07:50:11;;;;;;;12.33;9.20;;;;;;;5.47;72.98;99409.69;1754946;81;25509;-50
2023/02/18 07:52:39;;;;;;;70.83;66.07;;;;;;;5.50;73.00;99407.77;1751538;81;25395;-48
2023/02/18 07:55:08;;;;;;;11.20;5.53;;;;;;;5.56;73.33;99412.48;1754993;81;27565;-46
2023/02/18 07:57:56;;;;;;;9.63;4.87;;;;;;;5.60;73.13;99422.33;1751580;81;25584;-47
2023/02/18 08:00:08;;;;;;;11.90;3.25;;;;;;;5.63;72.39;99414.77;1754376;81;25637;-48
2023/02/18 08:02:36;;;;;;;13.13;9.40;;;;;;;5.63;71.67;99404.05;1751486;81;25601;-48
2023/02/18 08:05:02;;;;;;;79.00;73.55;;;;;;;5.63;72.66;99412.88;1754953;81;25651;-47
2023/02/18 08:07:29;;;;;;;78.52;72.82;;;;;;;5.64;72.07;99419.84;1751432;81;27553;-47
2023/02/18 08:09:56;;;;;;;78.90;73.62;;;;;;;5.66;72.24;99408.82;1754894;81;25620;-47
2023/02/18 08:12:22;;;;;;;77.27;72.03;;;;;;;5.63;71.85;99418.24;1751489;81;25610;-47
2023/02/18 08:14:50;;;;;;;78.45;73.15;;;;;;;5.64;72.48;99428.45;1754846;81;25572;-47
2023/02/18 08:17:17;;;;;;;79.62;73.75;;;;;;;5.68;70.11;99426.75;1751525;81;25471;-48
2023/02/18 08:19:44;;;;;;;80.55;74.30;;;;;;;5.65;70.15;99416.05;1754905;81;29672;-47
2023/02/18 08:22:12;;;;;;;77.42;72.00;;;;;;;5.66;70.14;99432.97;1751413;81;25527;-48
2023/02/18 08:24:39;;;;;;;79.47;73.75;;;;;;;5.68;70.88;99436.92;1754912;81;25618;-47
2023/02/18 08:27:06;;;;;;;78.05;72.40;;;;;;;5.70;70.41;99428.58;1751416;81;26427;-47
2023/02/18 08:29:34;;;;;;;84.37;78.50;;;;;;;5.72;69.57;99445.17;1754963;81;25646;-47
2023/02/18 08:32:00;;;;;;;78.52;72.85;;;;;;;5.73;69.09;99438.17;1751365;81;28420;-47
2023/02/18 08:34:26;;;;;;;6.70;2.08;;;;;;;5.76;70.43;99432.22;1754807;81;25640;-47
2023/02/18 08:36:55;;;;;;;8.68;1.92;;;;;;;5.86;69.98;99421.05;1751407;81;25535;-47
2023/02/18 08:39:22;;;;;;;8.25;1.90;;;;;;;5.91;70.17;99435.16;1754860;81;25674;-46
2023/02/18 08:41:48;;;;;;;11.90;2.33;;;;;;;5.99;68.62;99428.31;1751472;81;25562;-47
2023/02/18 08:44:16;;;;;;;15.40;2.40;;;;;;;6.01;69.86;99437.41;1754889;81;27498;-48
2023/02/18 08:46:45;;;;;;;10.23;2.20;;;;;;;6.02;69.21;99443.05;1751310;81;25750;-47
2023/02/18 08:49:13;;;;;;;15.45;9.13;;;;;;;6.03;69.79;99420.45;1755065;81;25652;-47
2023/02/18 08:51:41;;;;;;;79.12;73.57;;;;;;;6.08;68.41;99423.84;1751382;81;25425;-47
2023/02/18 08:54:07;;;;;;;3.65;1.50;;;;;;;6.13;69.05;99429.11;1755060;81;25644;-48
2023/02/18 08:56:34;;;;;;;13.00;2.58;;;;;;;6.15;67.78;99434.19;1751472;81;28173;-47
2023/02/18 08:59:00;;;;;;;10.88;3.65;;;;;;;6.14;65.36;99443.33;1754812;81;25380;-48
2023/02/18 09:01:28;;;;;;;12.30;2.12;;;;;;;6.13;66.84;99430.98;1751382;81;25512;-48
2023/02/18 09:03:56;;;;;;;7.12;2.80;;;;;;;6.14;67.75;99429.34;1754879;81;26258;-46
2023/02/18 09:06:24;;;;;;;67.65;63.00;;;;;;;6.21;67.68;99435.66;1751720;81;25407;-47
2023/02/18 09:08:52;;;;;;;6.12;2.08;;;;;;;6.31;67.77;99429.28;1754916;81;27704;-48
2023/02/18 09:11:21;;;;;;;5.12;2.00;;;;;;;6.45;67.24;99438.13;1751416;81;26080;-48
2023/02/18 09:13:47;;;;;;;7.50;4.30;;;;;;;6.57;67.11;99435.44;1754700;81;25551;-48
2023/02/18 09:16:18;;;;;;;30.17;27.98;;;;;;;6.62;66.51;99429.39;1751403;81;25413;-48
2023/02/18 09:18:48;;;;;;;10.85;4.97;;;;;;;6.67;65.13;99447.30;1754967;81;25566;-46
2023/02/18 09:21:19;;;;;;;11.57;2.50;;;;;;;6.72;66.34;99433.22;1751474;81;28185;-47
2023/02/18 09:23:47;;;;;;;7.08;3.15;;;;;;;6.79;65.81;99449.45;1754808;81;25400;-47
2023/02/18 09:26:23;;;;;;;12.73;10.93;;;;;;;6.82;64.92;99444.27;1751372;81;25531;-47
2023/02/18 09:28:55;;;;;;;15.18;9.33;;;;;;;6.89;62.88;99439.81;1753228;81;25583;-49
2023/02/18 09:31:26;;;;;;;63.60;59.08;;;;;;;7.01;64.40;99457.53;1751467;81;25566;-51
2023/02/18 09:33:59;;;;;;;52.53;48.92;;;;;;;7.14;64.06;99452.42;1754951;81;27194;-47
2023/02/18 09:36:28;;;;;;;15.70;5.53;;;;;;;7.18;65.38;99451.48;1751427;81;25764;-47
2023/02/18 09:38:57;;;;;;;;;;;;;;;7.24;64.79;99436.03;1706090;81;25422;-48
2023/02/18 09:41:38;;;;;;;12.37;11.33;;;;;;;7.34;64.96;99442.50;1782339;80;25448;-47
2023/02/18 09:44:43;;;;;;;54.85;50.45;;;;;;;7.31;63.15;99459.81;1751521;81;25537;-48
2023/02/18 09:47:24;;;;;;;47.60;43.92;;;;;;;7.29;61.73;99448.80;1751412;81;28043;-48
2023/02/18 09:50:00;;;;;;;31.70;29.15;;;;;;;7.20;63.31;99452.52;1750790;81;27380;-48
2023/02/18 09:52:38;;;;;;;77.65;72.10;;;;;;;7.17;63.26;99451.78;1738524;81;25645;-49
2023/02/18 09:55:27;;;;;;;12.13;3.52;;;;;;;7.24;64.05;99461.59;1751394;81;25589;-48
2023/02/18 09:58:00;;;;;;;78.22;72.82;;;;;;;7.25;63.34;99447.02;1755258;81;25454;-47
2023/02/18 10:00:41;;;;;;;45.92;41.50;;;;;;;7.28;62.78;99480.82;1751465;81;27564;-49
2023/02/18 10:03:26;;;;;;;67.62;62.35;;;;;;;7.34;62.51;99464.55;1753939;81;25745;-47
2023/02/18 10:05:57;;;;;;;67.90;62.62;;;;;;;7.32;63.02;99476.17;1751453;81;25539;-46
2023/02/18 10:08:29;;;;;;;78.57;73.00;;;;;;;7.27;62.05;99469.83;1754828;81;25521;-47
2023/02/18 10:10:57;;;;;;;10.03;3.10;;;;;;;7.52;63.64;99478.91;1750529;81;25629;-46
2023/02/18 10:13:28;;;;;;;11.20;2.52;;;;;;;7.74;61.07;99476.73;1754649;81;27656;-47
2023/02/18 10:15:55;;;;;;;16.65;3.80;;;;;;;7.67;61.22;99482.55;1751393;81;25563;-47
2023/02/18 10:18:33;;;;;;;7.22;2.20;;;;;;;7.65;62.58;99478.83;1754826;81;25583;-48
2023/02/18 10:21:14;;;;;;;9.78;2.20;;;;;;;7.70;62.43;99490.02;1751423;81;25702;-48
2023/02/18 10:24:01;;;;;;;10.03;2.40;;;;;;;7.81;61.35;99477.86;1754927;81;25611;-48
2023/02/18 10:26:33;;;;;;;10.78;2.50;;;;;;;7.83;60.59;99497.22;1745378;81;27557;-47
2023/02/18 10:29:01;;;;;;;8.90;2.40;;;;;;;7.68;59.26;99484.16;1754769;81;25546;-48
2023/02/18 10:31:38;;;;;;;9.88;3.10;;;;;;;7.60;61.45;99489.72;1751327;81;25442;-49
2023/02/18 10:34:18;;;;;;;12.33;2.33;;;;;;;7.62;61.63;99485.38;1754803;81;25571;-49
2023/02/18 10:36:50;;;;;;;12.37;2.90;;;;;;;7.62;62.13;99486.73;1734557;81;25602;-47
2023/02/18 10:39:41;;;;;;;14.45;3.52;;;;;;;7.59;62.01;99481.39;1753194;81;27496;-49
2023/02/18 10:42:41;;;;;;;10.55;2.60;;;;;;;7.73;62.15;99486.72;1751429;81;25565;-47
2023/02/18 10:45:30;;;;;;;16.02;2.55;;;;;;;7.85;59.50;99474.81;1729470;81;25493;-51
2023/02/18 10:48:21;;;;;;;11.15;2.83;;;;;;;7.91;60.00;99476.80;1750610;81;26113;-51
2023/02/18 10:50:50;;;;;;;12.00;2.85;;;;;;;7.89;59.98;99480.92;1754925;81;25550;-47
2023/02/18 10:53:35;;;;;;;12.50;2.60;;;;;;;7.90;60.25;99473.07;1751524;81;27478;-51
2023/02/18 10:56:06;;;;;;;14.85;2.65;;;;;;;7.99;60.73;99477.95;1753572;81;25618;-53
2023/02/18 10:58:46;;;;;;;18.30;5.05;;;;;;;8.02;61.14;99461.97;1723929;81;25461;-50
2023/02/18 11:01:19;;;;;;;;;;;;;;;8.07;59.91;99457.00;1757474;81;25509;-51
2023/02/18 11:03:53;;;;;;;12.60;3.37;;;;;;;8.03;60.17;99462.19;1782549;80;25583;-51
2023/02/18 11:06:46;;;;;;;19.40;6.33;;;;;;;7.94;59.08;99457.34;1751268;81;27568;-50
2023/02/18 11:09:34;;;;;;;10.13;2.40;;;;;;;7.87;59.84;99459.69;1751246;81;25618;-51
2023/02/18 11:12:16;;;;;;;14.85;3.10;;;;;;;7.80;59.73;99454.75;1743186;81;25622;-48
2023/02/18 11:14:49;;;;;;;17.35;4.47;;;;;;;7.76;59.63;99468.58;1751239;81;25562;-47
2023/02/18 11:17:26;;;;;;;17.30;3.02;;;;;;;7.74;60.34;99469.44;1748201;81;25599;-49
2023/02/18 11:20:01;;;;;;;15.00;3.98;;;;;;;7.66;59.53;99480.42;1751395;82;27324;-48
2023/02/18 11:22:38;;;;;;;20.48;5.15;;;;;;;7.63;60.07;99456.81;1751301;82;25569;-50
2023/02/18 11:25:10;;;;;;;15.03;3.12;;;;;;;7.65;59.99;99453.81;1750679;81;25582;-46
2023/02/18 11:27:47;;;;;;;14.33;3.42;;;;;;;7.62;59.92;99458.47;1745940;82;25542;-47
2023/02/18 11:30:38;;;;;;;23.42;5.97;;;;;;;7.60;60.52;99446.66;1751469;82;25396;-49
2023/02/18 11:33:25;;;;;;;15.95;2.77;;;;;;;7.62;60.62;99444.45;1751357;82;27334;-51
2023/02/18 11:35:55;;;;;;;8.18;2.25;;;;;;;7.56;61.17;99436.81;1738800;82;26115;-47
2023/02/18 11:38:35;;;;;;;14.60;3.25;;;;;;;7.46;60.41;99456.73;1751389;82;25557;-49
2023/02/18 11:41:10;;;;;;;13.90;4.40;;;;;;;7.38;60.85;99447.49;1751533;81;26005;-47
2023/02/18 11:43:44;;;;;;;16.10;3.87;;;;;;;7.33;61.26;99436.86;1751423;81;25652;-47
2023/02/18 11:46:17;;;;;;;17.48;3.98;;;;;;;7.34;61.70;99426.89;1751467;82;27455;-49
2023/02/18 11:48:46;;;;;;;15.00;3.83;;;;;;;7.40;62.46;99448.53;1724350;82;25427;-50
2023/02/18 11:51:24;;;;;;;15.28;2.85;;;;;;;7.46;61.39;99431.95;1723944;82;25413;-48
2023/02/18 11:54:06;;;;;;;12.10;2.85;;;;;;;7.47;62.15;99452.39;1751299;81;25541;-47
2023/02/18 11:56:36;;;;;;;13.13;3.83;;;;;;;7.57;62.45;99424.40;1751445;82;25456;-50
2023/02/18 11:59:05;;;;;;;12.47;3.05;;;;;;;7.62;62.00;99435.59;1751327;82;27341;-49